sensor_id;sensor_type;location;lat;lon;timestamp;P1;durP1;ratioP1;P2;durP2;ratioP2
23988;SDS011;12202;52.136;5.592;2022-12-20T00:01:10;12.27;;;5.18;;
23988;SDS011;12202;52.136;5.592;2022-12-20T00:03:37;9.65;;;5.93;;
23988;SDS011;12202;52.136;5.592;2022-12-20T00:06:03;9.52;;;5.43;;
23988;SDS011;12202;52.136;5.592;2022-12-20T00:08:29;9.52;;;5.70;;
23988;SDS011;12202;52.136;5.592;2022-12-20T00:10:58;13.65;;;5.65;;
23988;SDS011;12202;52.136;5.592;2022-12-20T00:13:24;7.50;;;5.05;;
23988;SDS011;12202;52.136;5.592;2022-12-20T00:15:50;9.32;;;5.28;;
23988;SDS011;12202;52.136;5.592;2022-12-20T00:18:27;9.73;;;6.50;;
23988;SDS011;12202;52.136;5.592;2022-12-20T00:20:57;16.52;;;5.85;;
23988;SDS011;12202;52.136;5.592;2022-12-20T00:23:23;8.80;;;5.13;;
23988;SDS011;12202;52.136;5.592;2022-12-20T00:25:49;7.50;;;5.22;;
23988;SDS011;12202;52.136;5.592;2022-12-20T00:28:15;8.52;;;5.05;;
23988;SDS011;12202;52.136;5.592;2022-12-20T00:30:41;8.18;;;5.10;;
23988;SDS011;12202;52.136;5.592;2022-12-20T00:33:07;21.10;;;5.88;;
23988;SDS011;12202;52.136;5.592;2022-12-20T00:35:35;8.73;;;4.70;;
23988;SDS011;12202;52.136;5.592;2022-12-20T00:38:01;8.63;;;5.85;;
23988;SDS011;12202;52.136;5.592;2022-12-20T00:40:27;10.25;;;5.43;;
23988;SDS011;12202;52.136;5.592;2022-12-20T00:42:53;9.98;;;6.10;;
23988;SDS011;12202;52.136;5.592;2022-12-20T00:45:19;10.25;;;5.28;;
23988;SDS011;12202;52.136;5.592;2022-12-20T00:47:46;7.18;;;5.20;;
23988;SDS011;12202;52.136;5.592;2022-12-20T00:50:12;11.10;;;5.97;;
23988;SDS011;12202;52.136;5.592;2022-12-20T00:52:39;13.70;;;6.13;;
23988;SDS011;12202;52.136;5.592;2022-12-20T00:55:05;14.80;;;5.93;;
23988;SDS011;12202;52.136;5.592;2022-12-20T00:57:32;7.80;;;5.18;;
23988;SDS011;12202;52.136;5.592;2022-12-20T00:59:58;8.68;;;5.05;;
23988;SDS011;12202;52.136;5.592;2022-12-20T01:02:24;9.95;;;5.88;;
23988;SDS011;12202;52.136;5.592;2022-12-20T01:04:50;9.80;;;5.65;;
23988;SDS011;12202;52.136;5.592;2022-12-20T01:07:16;14.32;;;5.07;;
23988;SDS011;12202;52.136;5.592;2022-12-20T01:09:43;10.98;;;5.45;;
23988;SDS011;12202;52.136;5.592;2022-12-20T01:12:09;13.68;;;5.45;;
23988;SDS011;12202;52.136;5.592;2022-12-20T01:14:35;11.35;;;5.75;;
23988;SDS011;12202;52.136;5.592;2022-12-20T01:17:01;9.73;;;5.03;;
23988;SDS011;12202;52.136;5.592;2022-12-20T01:19:27;7.80;;;5.07;;
23988;SDS011;12202;52.136;5.592;2022-12-20T01:21:53;9.88;;;5.03;;
23988;SDS011;12202;52.136;5.592;2022-12-20T01:24:19;10.68;;;5.03;;
23988;SDS011;12202;52.136;5.592;2022-12-20T01:26:46;8.88;;;5.20;;
23988;SDS011;12202;52.136;5.592;2022-12-20T01:29:12;10.82;;;4.35;;
23988;SDS011;12202;52.136;5.592;2022-12-20T01:31:38;9.90;;;5.60;;
23988;SDS011;12202;52.136;5.592;2022-12-20T01:34:05;7.72;;;4.95;;
23988;SDS011;12202;52.136;5.592;2022-12-20T01:36:31;9.80;;;4.97;;
23988;SDS011;12202;52.136;5.592;2022-12-20T01:38:59;9.75;;;5.18;;
23988;SDS011;12202;52.136;5.592;2022-12-20T01:41:25;11.65;;;5.63;;
23988;SDS011;12202;52.136;5.592;2022-12-20T01:43:55;8.77;;;5.38;;
23988;SDS011;12202;52.136;5.592;2022-12-20T01:46:25;13.73;;;5.75;;
23988;SDS011;12202;52.136;5.592;2022-12-20T01:49:08;11.13;;;6.15;;
23988;SDS011;12202;52.136;5.592;2022-12-20T01:57:27;12.20;;;6.30;;
23988;SDS011;12202;52.136;5.592;2022-12-20T01:59:54;9.82;;;5.97;;
23988;SDS011;12202;52.136;5.592;2022-12-20T02:02:20;11.77;;;6.78;;
23988;SDS011;12202;52.136;5.592;2022-12-20T02:04:46;10.50;;;6.75;;
23988;SDS011;12202;52.136;5.592;2022-12-20T02:07:14;15.05;;;7.45;;
23988;SDS011;12202;52.136;5.592;2022-12-20T02:09:42;11.07;;;6.32;;
23988;SDS011;12202;52.136;5.592;2022-12-20T02:12:11;11.35;;;7.07;;
23988;SDS011;12202;52.136;5.592;2022-12-20T02:17:25;18.73;;;8.65;;
23988;SDS011;12202;52.136;5.592;2022-12-20T02:30:45;12.23;;;7.72;;
23988;SDS011;12202;52.136;5.592;2022-12-20T02:33:12;13.52;;;6.95;;
23988;SDS011;12202;52.136;5.592;2022-12-20T02:35:39;10.85;;;7.47;;
23988;SDS011;12202;52.136;5.592;2022-12-20T02:40:55;12.30;;;7.68;;
23988;SDS011;12202;52.136;5.592;2022-12-20T02:43:22;16.83;;;8.98;;
23988;SDS011;12202;52.136;5.592;2022-12-20T02:46:07;14.70;;;8.23;;
23988;SDS011;12202;52.136;5.592;2022-12-20T02:48:34;19.75;;;8.82;;
23988;SDS011;12202;52.136;5.592;2022-12-20T02:51:01;16.58;;;8.48;;
23988;SDS011;12202;52.136;5.592;2022-12-20T02:53:29;10.02;;;7.35;;
23988;SDS011;12202;52.136;5.592;2022-12-20T02:55:57;11.77;;;7.72;;
23988;SDS011;12202;52.136;5.592;2022-12-20T03:00:50;15.20;;;8.18;;
23988;SDS011;12202;52.136;5.592;2022-12-20T03:03:17;9.82;;;7.55;;
23988;SDS011;12202;52.136;5.592;2022-12-20T03:05:47;14.90;;;8.10;;
23988;SDS011;12202;52.136;5.592;2022-12-20T03:08:13;14.73;;;7.68;;
23988;SDS011;12202;52.136;5.592;2022-12-20T03:10:39;11.70;;;7.78;;
23988;SDS011;12202;52.136;5.592;2022-12-20T03:13:05;13.48;;;7.95;;
23988;SDS011;12202;52.136;5.592;2022-12-20T03:15:31;17.45;;;8.57;;
23988;SDS011;12202;52.136;5.592;2022-12-20T03:17:57;17.65;;;8.27;;
23988;SDS011;12202;52.136;5.592;2022-12-20T03:20:23;13.38;;;7.97;;
23988;SDS011;12202;52.136;5.592;2022-12-20T03:22:49;15.75;;;8.65;;
23988;SDS011;12202;52.136;5.592;2022-12-20T03:25:16;14.20;;;7.93;;
23988;SDS011;12202;52.136;5.592;2022-12-20T03:27:41;17.95;;;8.25;;
23988;SDS011;12202;52.136;5.592;2022-12-20T03:30:08;15.90;;;8.35;;
23988;SDS011;12202;52.136;5.592;2022-12-20T03:32:34;15.13;;;8.45;;
23988;SDS011;12202;52.136;5.592;2022-12-20T03:35:00;19.73;;;8.77;;
23988;SDS011;12202;52.136;5.592;2022-12-20T03:37:26;18.60;;;9.27;;
23988;SDS011;12202;52.136;5.592;2022-12-20T03:39:51;19.38;;;8.52;;
23988;SDS011;12202;52.136;5.592;2022-12-20T03:42:17;14.98;;;8.48;;
23988;SDS011;12202;52.136;5.592;2022-12-20T03:44:43;17.58;;;7.10;;
23988;SDS011;12202;52.136;5.592;2022-12-20T03:47:09;14.85;;;6.90;;
23988;SDS011;12202;52.136;5.592;2022-12-20T03:49:35;17.63;;;6.70;;
23988;SDS011;12202;52.136;5.592;2022-12-20T03:52:01;16.63;;;8.50;;
23988;SDS011;12202;52.136;5.592;2022-12-20T03:54:27;15.63;;;6.85;;
23988;SDS011;12202;52.136;5.592;2022-12-20T03:56:53;12.40;;;6.95;;
23988;SDS011;12202;52.136;5.592;2022-12-20T03:59:19;20.10;;;7.10;;
23988;SDS011;12202;52.136;5.592;2022-12-20T04:01:45;12.18;;;7.43;;
23988;SDS011;12202;52.136;5.592;2022-12-20T04:04:12;10.13;;;6.82;;
23988;SDS011;12202;52.136;5.592;2022-12-20T04:06:39;18.83;;;7.20;;
23988;SDS011;12202;52.136;5.592;2022-12-20T04:09:08;10.52;;;6.80;;
23988;SDS011;12202;52.136;5.592;2022-12-20T04:11:34;13.80;;;6.97;;
23988;SDS011;12202;52.136;5.592;2022-12-20T04:14:00;9.15;;;6.07;;
23988;SDS011;12202;52.136;5.592;2022-12-20T04:16:27;11.55;;;6.28;;
23988;SDS011;12202;52.136;5.592;2022-12-20T04:18:53;10.63;;;6.75;;
23988;SDS011;12202;52.136;5.592;2022-12-20T04:21:22;13.82;;;5.88;;
23988;SDS011;12202;52.136;5.592;2022-12-20T04:23:51;13.43;;;6.80;;
23988;SDS011;12202;52.136;5.592;2022-12-20T04:26:17;9.45;;;6.38;;
23988;SDS011;12202;52.136;5.592;2022-12-20T04:28:43;13.20;;;5.78;;
23988;SDS011;12202;52.136;5.592;2022-12-20T04:31:09;9.43;;;6.10;;
23988;SDS011;12202;52.136;5.592;2022-12-20T04:33:35;11.88;;;6.50;;
23988;SDS011;12202;52.136;5.592;2022-12-20T04:36:02;10.52;;;5.38;;
23988;SDS011;12202;52.136;5.592;2022-12-20T04:38:28;14.35;;;5.13;;
23988;SDS011;12202;52.136;5.592;2022-12-20T04:40:54;11.63;;;5.63;;
23988;SDS011;12202;52.136;5.592;2022-12-20T04:43:20;9.85;;;6.20;;
23988;SDS011;12202;52.136;5.592;2022-12-20T04:45:47;8.18;;;5.65;;
23988;SDS011;12202;52.136;5.592;2022-12-20T04:48:14;13.15;;;5.25;;
23988;SDS011;12202;52.136;5.592;2022-12-20T04:50:40;8.80;;;5.22;;
23988;SDS011;12202;52.136;5.592;2022-12-20T04:53:12;8.63;;;5.22;;
23988;SDS011;12202;52.136;5.592;2022-12-20T04:55:56;7.85;;;4.75;;
23988;SDS011;12202;52.136;5.592;2022-12-20T04:58:22;17.15;;;5.57;;
23988;SDS011;12202;52.136;5.592;2022-12-20T05:00:49;7.82;;;5.40;;
23988;SDS011;12202;52.136;5.592;2022-12-20T05:03:16;12.30;;;5.68;;
23988;SDS011;12202;52.136;5.592;2022-12-20T05:05:42;11.73;;;5.60;;
23988;SDS011;12202;52.136;5.592;2022-12-20T05:08:08;12.02;;;6.22;;
23988;SDS011;12202;52.136;5.592;2022-12-20T05:10:35;15.43;;;6.30;;
23988;SDS011;12202;52.136;5.592;2022-12-20T05:13:01;10.70;;;6.35;;
23988;SDS011;12202;52.136;5.592;2022-12-20T05:15:27;10.63;;;6.30;;
23988;SDS011;12202;52.136;5.592;2022-12-20T05:17:53;9.75;;;6.18;;
23988;SDS011;12202;52.136;5.592;2022-12-20T05:20:23;9.48;;;6.40;;
23988;SDS011;12202;52.136;5.592;2022-12-20T05:22:49;12.73;;;8.18;;
23988;SDS011;12202;52.136;5.592;2022-12-20T05:25:35;10.30;;;7.00;;
23988;SDS011;12202;52.136;5.592;2022-12-20T05:28:19;10.63;;;6.50;;
23988;SDS011;12202;52.136;5.592;2022-12-20T05:30:45;13.52;;;7.45;;
23988;SDS011;12202;52.136;5.592;2022-12-20T05:33:11;12.93;;;7.03;;
23988;SDS011;12202;52.136;5.592;2022-12-20T05:35:37;13.55;;;6.75;;
23988;SDS011;12202;52.136;5.592;2022-12-20T05:38:03;12.35;;;7.22;;
23988;SDS011;12202;52.136;5.592;2022-12-20T05:40:29;10.88;;;6.47;;
23988;SDS011;12202;52.136;5.592;2022-12-20T05:42:55;15.48;;;6.78;;
23988;SDS011;12202;52.136;5.592;2022-12-20T05:45:21;9.90;;;6.03;;
23988;SDS011;12202;52.136;5.592;2022-12-20T05:47:47;12.98;;;8.32;;
23988;SDS011;12202;52.136;5.592;2022-12-20T05:50:13;16.70;;;7.35;;
23988;SDS011;12202;52.136;5.592;2022-12-20T05:52:44;17.92;;;6.72;;
23988;SDS011;12202;52.136;5.592;2022-12-20T05:55:10;12.80;;;7.22;;
23988;SDS011;12202;52.136;5.592;2022-12-20T05:57:36;12.98;;;7.40;;
23988;SDS011;12202;52.136;5.592;2022-12-20T06:00:03;13.27;;;7.50;;
23988;SDS011;12202;52.136;5.592;2022-12-20T06:02:29;12.95;;;7.57;;
23988;SDS011;12202;52.136;5.592;2022-12-20T06:05:03;12.85;;;6.80;;
23988;SDS011;12202;52.136;5.592;2022-12-20T06:07:30;13.63;;;7.28;;
23988;SDS011;12202;52.136;5.592;2022-12-20T06:09:56;15.48;;;7.40;;
23988;SDS011;12202;52.136;5.592;2022-12-20T06:12:22;11.57;;;6.97;;
23988;SDS011;12202;52.136;5.592;2022-12-20T06:14:49;13.57;;;7.53;;
23988;SDS011;12202;52.136;5.592;2022-12-20T06:17:15;11.35;;;7.70;;
23988;SDS011;12202;52.136;5.592;2022-12-20T06:19:41;14.10;;;7.00;;
23988;SDS011;12202;52.136;5.592;2022-12-20T06:22:07;13.00;;;7.70;;
23988;SDS011;12202;52.136;5.592;2022-12-20T06:24:34;10.63;;;7.00;;
23988;SDS011;12202;52.136;5.592;2022-12-20T06:27:00;10.45;;;7.20;;
23988;SDS011;12202;52.136;5.592;2022-12-20T06:29:27;13.85;;;6.95;;
23988;SDS011;12202;52.136;5.592;2022-12-20T06:31:53;13.23;;;7.38;;
23988;SDS011;12202;52.136;5.592;2022-12-20T06:34:19;10.00;;;6.90;;
23988;SDS011;12202;52.136;5.592;2022-12-20T06:36:45;11.05;;;6.85;;
23988;SDS011;12202;52.136;5.592;2022-12-20T06:39:11;12.93;;;6.47;;
23988;SDS011;12202;52.136;5.592;2022-12-20T06:41:38;15.05;;;6.70;;
23988;SDS011;12202;52.136;5.592;2022-12-20T06:44:04;14.88;;;7.90;;
23988;SDS011;12202;52.136;5.592;2022-12-20T06:46:30;13.25;;;6.60;;
23988;SDS011;12202;52.136;5.592;2022-12-20T06:48:56;15.35;;;6.18;;
23988;SDS011;12202;52.136;5.592;2022-12-20T06:51:22;20.00;;;6.93;;
23988;SDS011;12202;52.136;5.592;2022-12-20T06:53:48;11.82;;;6.00;;
23988;SDS011;12202;52.136;5.592;2022-12-20T06:56:14;11.40;;;5.40;;
23988;SDS011;12202;52.136;5.592;2022-12-20T06:58:40;9.73;;;5.95;;
23988;SDS011;12202;52.136;5.592;2022-12-20T07:01:06;12.73;;;6.10;;
23988;SDS011;12202;52.136;5.592;2022-12-20T07:03:32;10.35;;;5.50;;
23988;SDS011;12202;52.136;5.592;2022-12-20T07:05:58;12.20;;;5.72;;
23988;SDS011;12202;52.136;5.592;2022-12-20T07:08:24;10.45;;;6.20;;
23988;SDS011;12202;52.136;5.592;2022-12-20T07:10:51;10.40;;;5.88;;
23988;SDS011;12202;52.136;5.592;2022-12-20T07:13:18;10.63;;;5.75;;
23988;SDS011;12202;52.136;5.592;2022-12-20T07:15:47;7.82;;;5.63;;
23988;SDS011;12202;52.136;5.592;2022-12-20T07:18:13;12.73;;;5.18;;
23988;SDS011;12202;52.136;5.592;2022-12-20T07:20:39;7.35;;;4.85;;
23988;SDS011;12202;52.136;5.592;2022-12-20T07:23:06;11.60;;;6.03;;
23988;SDS011;12202;52.136;5.592;2022-12-20T07:25:32;9.05;;;5.25;;
23988;SDS011;12202;52.136;5.592;2022-12-20T07:27:58;11.63;;;4.90;;
23988;SDS011;12202;52.136;5.592;2022-12-20T07:30:24;14.18;;;5.18;;
23988;SDS011;12202;52.136;5.592;2022-12-20T07:32:50;12.80;;;5.43;;
23988;SDS011;12202;52.136;5.592;2022-12-20T07:35:16;7.35;;;4.88;;
23988;SDS011;12202;52.136;5.592;2022-12-20T07:37:43;8.85;;;4.68;;
23988;SDS011;12202;52.136;5.592;2022-12-20T07:40:09;8.13;;;4.57;;
23988;SDS011;12202;52.136;5.592;2022-12-20T07:42:38;8.18;;;4.40;;
23988;SDS011;12202;52.136;5.592;2022-12-20T07:45:04;9.60;;;5.03;;
23988;SDS011;12202;52.136;5.592;2022-12-20T07:47:30;13.18;;;5.35;;
23988;SDS011;12202;52.136;5.592;2022-12-20T07:49:58;14.82;;;5.13;;
23988;SDS011;12202;52.136;5.592;2022-12-20T07:52:24;10.88;;;5.28;;
23988;SDS011;12202;52.136;5.592;2022-12-20T07:54:53;9.70;;;4.70;;
23988;SDS011;12202;52.136;5.592;2022-12-20T07:57:21;9.52;;;4.35;;
23988;SDS011;12202;52.136;5.592;2022-12-20T07:59:50;9.40;;;5.18;;
23988;SDS011;12202;52.136;5.592;2022-12-20T08:02:20;11.32;;;4.78;;
23988;SDS011;12202;52.136;5.592;2022-12-20T08:04:48;8.73;;;5.43;;
23988;SDS011;12202;52.136;5.592;2022-12-20T08:07:20;16.83;;;7.70;;
23988;SDS011;12202;52.136;5.592;2022-12-20T08:09:46;25.25;;;8.38;;
23988;SDS011;12202;52.136;5.592;2022-12-20T08:12:14;13.70;;;6.13;;
23988;SDS011;12202;52.136;5.592;2022-12-20T08:14:44;19.25;;;6.55;;
23988;SDS011;12202;52.136;5.592;2022-12-20T08:17:10;19.90;;;7.28;;
23988;SDS011;12202;52.136;5.592;2022-12-20T08:19:36;11.88;;;4.68;;
23988;SDS011;12202;52.136;5.592;2022-12-20T08:22:03;5.90;;;4.47;;
23988;SDS011;12202;52.136;5.592;2022-12-20T08:24:30;9.80;;;3.92;;
23988;SDS011;12202;52.136;5.592;2022-12-20T08:26:56;7.72;;;4.80;;
23988;SDS011;12202;52.136;5.592;2022-12-20T08:29:22;12.88;;;4.18;;
23988;SDS011;12202;52.136;5.592;2022-12-20T08:31:48;7.85;;;3.97;;
23988;SDS011;12202;52.136;5.592;2022-12-20T08:34:14;9.50;;;5.00;;
23988;SDS011;12202;52.136;5.592;2022-12-20T08:36:40;12.77;;;4.38;;
23988;SDS011;12202;52.136;5.592;2022-12-20T08:39:07;7.78;;;4.38;;
23988;SDS011;12202;52.136;5.592;2022-12-20T08:41:35;9.32;;;3.97;;
23988;SDS011;12202;52.136;5.592;2022-12-20T08:44:02;14.05;;;4.63;;
23988;SDS011;12202;52.136;5.592;2022-12-20T08:46:28;18.13;;;5.10;;
23988;SDS011;12202;52.136;5.592;2022-12-20T08:48:54;6.88;;;3.67;;
23988;SDS011;12202;52.136;5.592;2022-12-20T08:51:20;8.43;;;3.75;;
23988;SDS011;12202;52.136;5.592;2022-12-20T08:53:46;5.50;;;3.70;;
23988;SDS011;12202;52.136;5.592;2022-12-20T08:56:13;6.82;;;3.45;;
23988;SDS011;12202;52.136;5.592;2022-12-20T08:58:39;7.70;;;4.03;;
23988;SDS011;12202;52.136;5.592;2022-12-20T09:01:10;6.78;;;4.10;;
23988;SDS011;12202;52.136;5.592;2022-12-20T09:03:36;12.00;;;5.35;;
23988;SDS011;12202;52.136;5.592;2022-12-20T09:06:10;14.88;;;5.35;;
23988;SDS011;12202;52.136;5.592;2022-12-20T09:08:37;8.77;;;4.30;;
23988;SDS011;12202;52.136;5.592;2022-12-20T09:11:08;10.68;;;3.70;;
23988;SDS011;12202;52.136;5.592;2022-12-20T09:13:34;8.82;;;4.38;;
23988;SDS011;12202;52.136;5.592;2022-12-20T09:16:01;16.33;;;4.78;;
23988;SDS011;12202;52.136;5.592;2022-12-20T09:18:27;9.50;;;4.60;;
23988;SDS011;12202;52.136;5.592;2022-12-20T09:20:53;11.35;;;4.97;;
23988;SDS011;12202;52.136;5.592;2022-12-20T09:23:19;10.55;;;4.88;;
23988;SDS011;12202;52.136;5.592;2022-12-20T09:25:45;9.38;;;5.60;;
23988;SDS011;12202;52.136;5.592;2022-12-20T09:28:11;9.50;;;4.75;;
23988;SDS011;12202;52.136;5.592;2022-12-20T09:30:37;14.05;;;5.32;;
23988;SDS011;12202;52.136;5.592;2022-12-20T09:33:03;14.85;;;4.82;;
23988;SDS011;12202;52.136;5.592;2022-12-20T09:35:29;13.18;;;5.13;;
23988;SDS011;12202;52.136;5.592;2022-12-20T09:37:57;12.13;;;5.38;;
23988;SDS011;12202;52.136;5.592;2022-12-20T09:40:23;10.23;;;5.30;;
23988;SDS011;12202;52.136;5.592;2022-12-20T09:42:51;17.77;;;5.45;;
23988;SDS011;12202;52.136;5.592;2022-12-20T09:45:23;10.52;;;5.25;;
23988;SDS011;12202;52.136;5.592;2022-12-20T09:47:50;11.45;;;5.47;;
23988;SDS011;12202;52.136;5.592;2022-12-20T09:50:16;13.23;;;5.70;;
23988;SDS011;12202;52.136;5.592;2022-12-20T10:00:33;10.40;;;5.78;;
23988;SDS011;12202;52.136;5.592;2022-12-20T10:03:01;13.73;;;7.50;;
23988;SDS011;12202;52.136;5.592;2022-12-20T10:05:35;14.57;;;6.38;;
23988;SDS011;12202;52.136;5.592;2022-12-20T10:10:42;21.88;;;8.50;;
23988;SDS011;12202;52.136;5.592;2022-12-20T10:20:56;12.20;;;6.95;;
23988;SDS011;12202;52.136;5.592;2022-12-20T10:23:27;18.63;;;7.93;;
23988;SDS011;12202;52.136;5.592;2022-12-20T10:25:55;14.50;;;6.10;;
23988;SDS011;12202;52.136;5.592;2022-12-20T10:28:25;16.58;;;7.55;;
23988;SDS011;12202;52.136;5.592;2022-12-20T10:30:52;13.23;;;7.82;;
23988;SDS011;12202;52.136;5.592;2022-12-20T10:33:19;14.55;;;6.80;;
23988;SDS011;12202;52.136;5.592;2022-12-20T10:35:46;15.32;;;7.68;;
23988;SDS011;12202;52.136;5.592;2022-12-20T10:38:13;14.27;;;7.82;;
23988;SDS011;12202;52.136;5.592;2022-12-20T10:43:13;17.38;;;7.00;;
23988;SDS011;12202;52.136;5.592;2022-12-20T10:45:43;12.20;;;7.18;;
23988;SDS011;12202;52.136;5.592;2022-12-20T10:48:23;13.52;;;6.95;;
23988;SDS011;12202;52.136;5.592;2022-12-20T10:50:55;14.15;;;6.95;;
23988;SDS011;12202;52.136;5.592;2022-12-20T10:53:21;11.82;;;7.03;;
23988;SDS011;12202;52.136;5.592;2022-12-20T10:55:49;20.50;;;7.15;;
23988;SDS011;12202;52.136;5.592;2022-12-20T11:00:41;17.50;;;8.32;;
23988;SDS011;12202;52.136;5.592;2022-12-20T11:03:12;12.25;;;7.68;;
23988;SDS011;12202;52.136;5.592;2022-12-20T11:05:39;18.83;;;8.20;;
23988;SDS011;12202;52.136;5.592;2022-12-20T11:08:08;18.80;;;8.52;;
23988;SDS011;12202;52.136;5.592;2022-12-20T11:10:37;13.30;;;8.40;;
23988;SDS011;12202;52.136;5.592;2022-12-20T11:13:03;16.92;;;7.90;;
23988;SDS011;12202;52.136;5.592;2022-12-20T11:15:34;16.60;;;7.60;;
23988;SDS011;12202;52.136;5.592;2022-12-20T11:18:12;18.20;;;7.57;;
23988;SDS011;12202;52.136;5.592;2022-12-20T11:20:41;13.55;;;7.97;;
23988;SDS011;12202;52.136;5.592;2022-12-20T11:31:35;20.48;;;8.32;;
23988;SDS011;12202;52.136;5.592;2022-12-20T11:41:26;15.57;;;8.18;;
23988;SDS011;12202;52.136;5.592;2022-12-20T11:43:59;12.77;;;8.60;;
23988;SDS011;12202;52.136;5.592;2022-12-20T11:49:22;15.95;;;8.73;;
23988;SDS011;12202;52.136;5.592;2022-12-20T11:51:57;15.05;;;9.68;;
23988;SDS011;12202;52.136;5.592;2022-12-20T11:54:27;20.88;;;9.15;;
23988;SDS011;12202;52.136;5.592;2022-12-20T11:56:57;17.40;;;9.13;;
23988;SDS011;12202;52.136;5.592;2022-12-20T12:02:32;15.40;;;9.45;;
23988;SDS011;12202;52.136;5.592;2022-12-20T12:05:02;16.65;;;9.77;;
23988;SDS011;12202;52.136;5.592;2022-12-20T12:07:30;23.63;;;11.05;;
23988;SDS011;12202;52.136;5.592;2022-12-20T12:15:45;15.65;;;10.02;;
23988;SDS011;12202;52.136;5.592;2022-12-20T12:18:15;17.08;;;9.35;;
23988;SDS011;12202;52.136;5.592;2022-12-20T12:25:47;18.23;;;9.93;;
23988;SDS011;12202;52.136;5.592;2022-12-20T12:28:13;19.67;;;10.18;;
23988;SDS011;12202;52.136;5.592;2022-12-20T12:30:41;16.58;;;9.30;;
23988;SDS011;12202;52.136;5.592;2022-12-20T12:33:11;18.10;;;10.55;;
23988;SDS011;12202;52.136;5.592;2022-12-20T12:35:47;13.35;;;9.55;;
23988;SDS011;12202;52.136;5.592;2022-12-20T12:38:26;15.02;;;9.48;;
23988;SDS011;12202;52.136;5.592;2022-12-20T12:43:40;17.20;;;10.02;;
23988;SDS011;12202;52.136;5.592;2022-12-20T12:46:13;17.38;;;10.30;;
23988;SDS011;12202;52.136;5.592;2022-12-20T12:48:42;16.55;;;9.70;;
23988;SDS011;12202;52.136;5.592;2022-12-20T12:51:13;20.00;;;9.93;;
23988;SDS011;12202;52.136;5.592;2022-12-20T12:53:47;18.60;;;11.50;;
23988;SDS011;12202;52.136;5.592;2022-12-20T13:11:51;17.23;;;10.65;;
23988;SDS011;12202;52.136;5.592;2022-12-20T13:16:53;17.60;;;11.25;;
23988;SDS011;12202;52.136;5.592;2022-12-20T13:21:55;20.20;;;12.27;;
23988;SDS011;12202;52.136;5.592;2022-12-20T13:24:34;16.05;;;10.73;;
23988;SDS011;12202;52.136;5.592;2022-12-20T13:27:02;22.90;;;12.05;;
23988;SDS011;12202;52.136;5.592;2022-12-20T13:29:33;23.35;;;11.85;;
23988;SDS011;12202;52.136;5.592;2022-12-20T13:31:59;16.92;;;11.70;;
23988;SDS011;12202;52.136;5.592;2022-12-20T13:37:49;18.65;;;11.73;;
23988;SDS011;12202;52.136;5.592;2022-12-20T13:43:07;17.83;;;11.93;;
23988;SDS011;12202;52.136;5.592;2022-12-20T13:45:36;19.63;;;13.05;;
23988;SDS011;12202;52.136;5.592;2022-12-20T13:48:03;19.98;;;13.07;;
23988;SDS011;12202;52.136;5.592;2022-12-20T13:50:32;20.45;;;13.32;;
23988;SDS011;12202;52.136;5.592;2022-12-20T13:53:02;19.63;;;13.68;;
23988;SDS011;12202;52.136;5.592;2022-12-20T13:55:33;21.80;;;14.10;;
23988;SDS011;12202;52.136;5.592;2022-12-20T13:58:04;19.65;;;13.45;;
23988;SDS011;12202;52.136;5.592;2022-12-20T14:00:30;22.17;;;14.05;;
23988;SDS011;12202;52.136;5.592;2022-12-20T14:02:57;22.63;;;13.20;;
23988;SDS011;12202;52.136;5.592;2022-12-20T14:05:26;26.08;;;13.95;;
23988;SDS011;12202;52.136;5.592;2022-12-20T14:07:59;19.40;;;13.70;;
23988;SDS011;12202;52.136;5.592;2022-12-20T14:10:27;20.27;;;14.05;;
23988;SDS011;12202;52.136;5.592;2022-12-20T14:12:54;25.75;;;14.43;;
23988;SDS011;12202;52.136;5.592;2022-12-20T14:15:30;19.65;;;13.82;;
23988;SDS011;12202;52.136;5.592;2022-12-20T14:18:03;20.13;;;13.75;;
23988;SDS011;12202;52.136;5.592;2022-12-20T14:20:32;22.23;;;14.00;;
23988;SDS011;12202;52.136;5.592;2022-12-20T14:23:10;20.60;;;13.52;;
23988;SDS011;12202;52.136;5.592;2022-12-20T14:25:41;18.40;;;13.45;;
23988;SDS011;12202;52.136;5.592;2022-12-20T14:28:13;20.67;;;13.70;;
23988;SDS011;12202;52.136;5.592;2022-12-20T14:30:41;19.95;;;12.70;;
23988;SDS011;12202;52.136;5.592;2022-12-20T14:33:24;20.60;;;13.90;;
23988;SDS011;12202;52.136;5.592;2022-12-20T14:35:52;23.73;;;16.25;;
23988;SDS011;12202;52.136;5.592;2022-12-20T14:38:19;24.45;;;16.00;;
23988;SDS011;12202;52.136;5.592;2022-12-20T14:40:46;19.95;;;14.77;;
23988;SDS011;12202;52.136;5.592;2022-12-20T14:43:20;21.73;;;15.10;;
23988;SDS011;12202;52.136;5.592;2022-12-20T14:45:49;22.90;;;14.40;;
23988;SDS011;12202;52.136;5.592;2022-12-20T14:48:30;19.75;;;14.68;;
23988;SDS011;12202;52.136;5.592;2022-12-20T14:50:59;21.92;;;14.95;;
23988;SDS011;12202;52.136;5.592;2022-12-20T14:53:29;21.33;;;14.52;;
23988;SDS011;12202;52.136;5.592;2022-12-20T14:55:55;27.38;;;15.02;;
23988;SDS011;12202;52.136;5.592;2022-12-20T15:00:58;23.23;;;15.20;;
23988;SDS011;12202;52.136;5.592;2022-12-20T15:03:25;23.98;;;15.63;;
23988;SDS011;12202;52.136;5.592;2022-12-20T15:05:53;22.50;;;15.90;;
23988;SDS011;12202;52.136;5.592;2022-12-20T15:13:13;26.10;;;16.27;;
23988;SDS011;12202;52.136;5.592;2022-12-20T15:15:39;25.02;;;17.10;;
23988;SDS011;12202;52.136;5.592;2022-12-20T15:18:12;23.83;;;17.80;;
23988;SDS011;12202;52.136;5.592;2022-12-20T15:20:42;24.00;;;16.70;;
23988;SDS011;12202;52.136;5.592;2022-12-20T15:23:14;23.75;;;16.73;;
23988;SDS011;12202;52.136;5.592;2022-12-20T15:25:50;25.70;;;17.00;;
23988;SDS011;12202;52.136;5.592;2022-12-20T15:28:23;24.70;;;16.42;;
23988;SDS011;12202;52.136;5.592;2022-12-20T15:30:50;24.60;;;17.58;;
23988;SDS011;12202;52.136;5.592;2022-12-20T15:33:27;29.58;;;19.67;;
23988;SDS011;12202;52.136;5.592;2022-12-20T15:36:06;26.23;;;18.45;;
23988;SDS011;12202;52.136;5.592;2022-12-20T15:38:39;30.52;;;19.45;;
23988;SDS011;12202;52.136;5.592;2022-12-20T15:43:57;26.38;;;19.23;;
23988;SDS011;12202;52.136;5.592;2022-12-20T15:46:33;28.33;;;19.35;;
23988;SDS011;12202;52.136;5.592;2022-12-20T15:48:59;26.02;;;19.23;;
23988;SDS011;12202;52.136;5.592;2022-12-20T15:53:51;29.65;;;19.70;;
23988;SDS011;12202;52.136;5.592;2022-12-20T15:56:18;40.22;;;22.23;;
23988;SDS011;12202;52.136;5.592;2022-12-20T15:58:45;29.48;;;21.13;;
23988;SDS011;12202;52.136;5.592;2022-12-20T16:01:13;34.72;;;22.00;;
23988;SDS011;12202;52.136;5.592;2022-12-20T16:03:40;32.22;;;21.50;;
23988;SDS011;12202;52.136;5.592;2022-12-20T16:06:07;31.70;;;20.55;;
23988;SDS011;12202;52.136;5.592;2022-12-20T16:08:35;35.50;;;22.98;;
23988;SDS011;12202;52.136;5.592;2022-12-20T16:11:01;36.22;;;22.23;;
23988;SDS011;12202;52.136;5.592;2022-12-20T16:13:27;37.45;;;22.95;;
23988;SDS011;12202;52.136;5.592;2022-12-20T16:15:53;32.72;;;21.65;;
23988;SDS011;12202;52.136;5.592;2022-12-20T16:18:19;33.50;;;23.08;;
23988;SDS011;12202;52.136;5.592;2022-12-20T16:20:45;38.65;;;23.17;;
23988;SDS011;12202;52.136;5.592;2022-12-20T16:23:19;41.28;;;24.42;;
23988;SDS011;12202;52.136;5.592;2022-12-20T16:25:46;38.22;;;24.80;;
23988;SDS011;12202;52.136;5.592;2022-12-20T16:28:13;35.92;;;24.45;;
23988;SDS011;12202;52.136;5.592;2022-12-20T16:30:39;36.78;;;24.83;;
23988;SDS011;12202;52.136;5.592;2022-12-20T16:33:05;40.20;;;25.70;;
23988;SDS011;12202;52.136;5.592;2022-12-20T16:35:34;44.58;;;27.33;;
23988;SDS011;12202;52.136;5.592;2022-12-20T16:38:01;35.63;;;23.77;;
23988;SDS011;12202;52.136;5.592;2022-12-20T16:40:28;40.08;;;25.83;;